Time;durP1;ratioP1;P1;durP2;ratioP2;P2;SDS_P1;SDS_P2;PMS_P1;PMS_P2;Temp;Humidity;BMP_temperature;BMP_pressure;BME280_temperature;BME280_humidity;BME280_pressure;Samples;Min_cycle;Max_cycle;Signal;HPM_P1;HPM_P2
2021/09/18 00:01:56;;;;;;;13.17;8.03;;;;;;;8.22;100.00;93785.50;5115345;28;20580;-76
2021/09/18 00:04:22;;;;;;;13.70;8.53;;;;;;;8.33;100.00;93781.63;5115254;28;20208;-77
2021/09/18 00:06:49;;;;;;;15.00;8.10;;;;;;;8.37;100.00;93782.06;5115146;28;20206;-77
2021/09/18 00:09:17;;;;;;;13.80;8.60;;;;;;;8.38;100.00;93779.25;5115129;28;20201;-76
2021/09/18 00:11:46;;;;;;;11.47;7.13;;;;;;;8.29;100.00;93785.56;5115318;28;20197;-76
2021/09/18 00:14:12;;;;;;;15.20;7.43;;;;;;;8.13;100.00;93784.84;5115401;28;20287;-76
2021/09/18 00:16:38;;;;;;;13.40;7.17;;;;;;;8.10;100.00;93794.81;5115030;28;20212;-77
2021/09/18 00:19:08;;;;;;;12.37;6.93;;;;;;;8.00;100.00;93784.69;5114137;28;20232;-77
2021/09/18 00:21:35;;;;;;;14.27;8.27;;;;;;;8.13;100.00;93782.22;5115140;28;20193;-77
2021/09/18 00:24:02;;;;;;;17.70;8.60;;;;;;;8.18;100.00;93786.88;5115280;28;20232;-76
2021/09/18 00:26:37;;;;;;;13.63;8.53;;;;;;;8.21;100.00;93777.88;5115009;28;20594;-76
2021/09/18 00:29:04;;;;;;;15.93;9.17;;;;;;;8.28;100.00;93778.78;5114803;27;20233;-76
2021/09/18 00:31:31;;;;;;;14.50;8.23;;;;;;;8.27;100.00;93782.34;5114970;28;20198;-76
2021/09/18 00:33:58;;;;;;;14.90;8.50;;;;;;;8.20;100.00;93778.91;5114484;28;20197;-76
2021/09/18 00:36:28;;;;;;;18.50;8.30;;;;;;;8.18;100.00;93783.47;5114970;28;20201;-76
2021/09/18 00:38:54;;;;;;;14.90;8.27;;;;;;;8.15;100.00;93775.03;5114898;28;20229;-75
2021/09/18 00:41:21;;;;;;;17.97;9.23;;;;;;;8.23;100.00;93781.13;5113992;28;20198;-76
2021/09/18 00:43:51;;;;;;;17.97;8.27;;;;;;;8.23;100.00;93778.53;5114723;28;20209;-76
2021/09/18 00:46:18;;;;;;;12.90;7.50;;;;;;;8.13;100.00;93781.44;5114629;28;20278;-77
2021/09/18 00:48:45;;;;;;;14.83;8.53;;;;;;;8.13;100.00;93782.22;5113705;28;20271;-76
2021/09/18 00:51:12;;;;;;;17.10;8.53;;;;;;;8.01;100.00;93777.69;5114508;28;20198;-76
2021/09/18 00:53:41;;;;;;;21.87;8.63;;;;;;;8.11;100.00;93781.63;5114564;28;20207;-75
2021/09/18 00:56:12;;;;;;;16.27;9.20;;;;;;;8.15;100.00;93779.44;5114397;28;20602;-76
2021/09/18 00:58:38;;;;;;;15.77;8.60;;;;;;;8.04;100.00;93778.13;5114317;28;20257;-76
2021/09/18 01:01:08;;;;;;;15.10;7.70;;;;;;;7.92;100.00;93775.22;5112497;28;20201;-75
2021/09/18 01:03:34;;;;;;;15.83;8.73;;;;;;;7.95;100.00;93780.03;5114440;28;20205;-76
2021/09/18 01:06:01;;;;;;;15.93;9.10;;;;;;;7.99;100.00;93777.88;5114174;28;20217;-76
2021/09/18 01:08:29;;;;;;;13.20;7.90;;;;;;;7.83;100.00;93781.53;5114379;28;20202;-76
2021/09/18 01:10:57;;;;;;;15.37;7.60;;;;;;;7.75;100.00;93782.44;5114173;28;20201;-76
2021/09/18 01:13:35;;;;;;;11.63;6.70;;;;;;;7.63;100.00;93780.47;5114014;28;20652;-77
2021/09/18 01:16:04;;;;;;;10.57;6.43;;;;;;;7.39;100.00;93780.63;5113679;28;20228;-76
2021/09/18 01:18:32;;;;;;;9.07;6.20;;;;;;;7.27;100.00;93792.44;5114050;28;20232;-76
2021/09/18 01:21:02;;;;;;;12.10;6.40;;;;;;;7.20;100.00;93787.16;5113494;28;20249;-75
2021/09/18 01:23:30;;;;;;;10.40;6.33;;;;;;;7.10;100.00;93785.81;5114049;28;20206;-76
2021/09/18 01:25:57;;;;;;;17.57;8.07;;;;;;;7.31;100.00;93787.69;5113545;28;20656;-75
2021/09/18 01:28:25;;;;;;;15.10;7.83;;;;;;;7.36;100.00;93791.38;5114012;28;20201;-76
2021/09/18 01:30:52;;;;;;;16.47;8.87;;;;;;;7.43;100.00;93788.03;5113889;28;20202;-76
2021/09/18 01:33:19;;;;;;;19.47;10.13;;;;;;;7.49;100.00;93779.53;5113666;28;20204;-75
2021/09/18 01:35:45;;;;;;;18.57;9.03;;;;;;;7.48;100.00;93783.13;5113673;28;20212;-76
2021/09/18 01:38:12;;;;;;;21.10;8.27;;;;;;;7.35;100.00;93778.56;5113529;28;20679;-76
2021/09/18 01:40:42;;;;;;;13.20;8.00;;;;;;;7.31;100.00;93782.47;5113368;28;20655;-76
2021/09/18 01:43:11;;;;;;;14.53;8.17;;;;;;;7.20;100.00;93778.56;5113801;28;20199;-76
2021/09/18 01:45:47;;;;;;;16.97;8.10;;;;;;;7.20;100.00;93773.38;5113558;28;20757;-76
2021/09/18 01:48:14;;;;;;;16.77;8.83;;;;;;;7.22;100.00;93779.19;5113676;28;20220;-76
2021/09/18 01:50:46;;;;;;;15.53;7.73;;;;;;;7.13;100.00;93780.28;5113504;28;20213;-75
2021/09/18 01:53:17;;;;;;;15.37;8.60;;;;;;;7.12;100.00;93783.84;5113457;28;20620;-76
2021/09/18 01:55:47;;;;;;;17.97;8.73;;;;;;;7.01;100.00;93775.53;5113677;28;20225;-75
2021/09/18 01:58:17;;;;;;;16.97;9.27;;;;;;;7.08;100.00;93772.19;5113469;28;20228;-76
2021/09/18 02:00:46;;;;;;;17.10;9.77;;;;;;;7.16;100.00;93772.09;5113475;28;20288;-76
2021/09/18 02:03:15;;;;;;;18.77;9.80;;;;;;;7.06;100.00;93779.34;5113366;28;20624;-76
2021/09/18 02:05:41;;;;;;;19.17;9.33;;;;;;;7.02;100.00;93771.91;5113259;28;20194;-76
2021/09/18 02:08:08;;;;;;;20.17;9.23;;;;;;;6.90;100.00;93773.34;5113537;28;20271;-76
2021/09/18 02:10:34;;;;;;;17.43;9.37;;;;;;;6.92;100.00;93778.38;5113461;28;20197;-76
2021/09/18 02:13:04;;;;;;;22.87;10.20;;;;;;;6.93;100.00;93780.78;5113388;28;20205;-75
2021/09/18 02:15:31;;;;;;;18.67;8.87;;;;;;;6.77;100.00;93786.94;5113329;28;20197;-76
2021/09/18 02:17:58;;;;;;;19.47;8.50;;;;;;;6.67;100.00;93776.81;5113046;28;20232;-76
2021/09/18 02:20:30;;;;;;;17.50;9.13;;;;;;;6.61;100.00;93777.53;5112945;28;20208;-76
2021/09/18 02:22:58;;;;;;;19.53;9.67;;;;;;;6.69;100.00;93773.25;5113286;28;20219;-76
2021/09/18 02:25:27;;;;;;;21.10;9.80;;;;;;;6.71;100.00;93781.66;5113015;28;20233;-75
2021/09/18 02:27:54;;;;;;;23.33;10.03;;;;;;;6.72;100.00;93778.09;5113197;28;20206;-75
2021/09/18 02:30:24;;;;;;;25.13;10.50;;;;;;;6.69;100.00;93771.44;5113033;28;20206;-76
2021/09/18 02:32:55;;;;;;;22.87;10.53;;;;;;;6.63;100.00;93775.56;5113087;28;20205;-76
2021/09/18 02:35:26;;;;;;;25.30;10.57;;;;;;;6.70;100.00;93775.66;5113169;28;20227;-76
2021/09/18 02:37:55;;;;;;;23.40;11.03;;;;;;;6.65;100.00;93780.56;5113224;28;20281;-76
2021/09/18 02:40:23;;;;;;;19.30;10.13;;;;;;;6.65;100.00;93778.78;5113010;28;20306;-76
2021/09/18 02:42:52;;;;;;;25.17;11.03;;;;;;;6.64;100.00;93772.00;5117082;28;20208;-75
2021/09/18 02:45:19;;;;;;;35.53;12.37;;;;;;;6.65;100.00;93767.59;5116946;28;20198;-75
2021/09/18 02:47:47;;;;;;;32.50;12.33;;;;;;;6.83;100.00;93775.06;5117183;28;20221;-76
2021/09/18 02:50:18;;;;;;;31.67;13.13;;;;;;;6.88;100.00;93771.91;5116921;28;20280;-76
2021/09/18 02:52:45;;;;;;;25.17;11.53;;;;;;;6.74;100.00;93763.13;5117072;28;20300;-75
2021/09/18 02:55:12;;;;;;;34.20;14.23;;;;;;;6.95;100.00;93765.84;5116887;28;20224;-76
2021/09/18 02:57:42;;;;;;;30.73;12.60;;;;;;;6.85;100.00;93767.91;5116670;28;20207;-76
2021/09/18 03:00:10;;;;;;;22.33;10.43;;;;;;;6.69;100.00;93762.88;5117100;28;20201;-75
2021/09/18 03:02:37;;;;;;;20.23;9.57;;;;;;;6.56;100.00;93760.88;5116893;28;20297;-75
2021/09/18 03:05:07;;;;;;;22.33;10.57;;;;;;;6.60;100.00;93760.34;5116605;28;20197;-75
2021/09/18 03:07:33;;;;;;;31.13;12.40;;;;;;;6.72;100.00;93763.31;5116602;28;20276;-75
2021/09/18 03:10:03;;;;;;;27.90;12.47;;;;;;;6.77;100.00;93770.56;5116668;28;20197;-76
2021/09/18 03:12:33;;;;;;;24.53;11.23;;;;;;;6.67;100.00;93769.03;5116427;28;20206;-76
2021/09/18 03:14:59;;;;;;;23.40;11.27;;;;;;;6.62;100.00;93768.75;5116601;28;20227;-75
2021/09/18 03:17:26;;;;;;;20.00;9.93;;;;;;;6.51;100.00;93763.97;5116363;28;20202;-75
2021/09/18 03:19:53;;;;;;;18.83;9.30;;;;;;;6.35;100.00;93766.75;5116138;28;20625;-75
2021/09/18 03:22:21;;;;;;;23.90;10.03;;;;;;;6.26;100.00;93764.22;5115770;28;20721;-75
2021/09/18 03:24:48;;;;;;;19.17;8.73;;;;;;;6.24;100.00;93757.56;5116281;28;20201;-75
2021/09/18 03:27:15;;;;;;;18.67;9.80;;;;;;;6.23;100.00;93761.97;5116089;28;20225;-75
2021/09/18 03:29:43;;;;;;;22.87;9.20;;;;;;;6.12;100.00;93757.19;5116305;28;20201;-76
2021/09/18 03:32:11;;;;;;;23.00;9.90;;;;;;;6.24;100.00;93760.97;5116266;28;20390;-75
2021/09/18 03:34:38;;;;;;;29.83;11.17;;;;;;;6.43;100.00;93764.88;5116111;28;20205;-76
2021/09/18 03:37:04;;;;;;;28.73;11.40;;;;;;;6.30;100.00;93768.06;5116154;28;20205;-75
2021/09/18 03:39:32;;;;;;;22.77;9.80;;;;;;;6.26;100.00;93763.38;5115555;27;20695;-76
2021/09/18 03:41:59;;;;;;;20.70;9.53;;;;;;;6.05;100.00;93759.66;5115810;28;20202;-75
2021/09/18 03:44:26;;;;;;;21.33;10.37;;;;;;;6.06;100.00;93763.03;5116270;28;20761;-75
2021/09/18 03:46:58;;;;;;;24.97;10.20;;;;;;;6.08;100.00;93761.91;5116040;28;20204;-76
2021/09/18 03:49:26;;;;;;;21.90;9.97;;;;;;;6.07;100.00;93760.28;5115741;28;20280;-75
2021/09/18 03:51:55;;;;;;;17.17;8.97;;;;;;;5.99;100.00;93759.53;5115168;28;20271;-75
2021/09/18 03:54:25;;;;;;;19.13;8.83;;;;;;;5.93;100.00;93761.81;5115034;28;20205;-76
2021/09/18 03:56:53;;;;;;;15.80;8.87;;;;;;;5.96;100.00;93752.91;5115670;28;20555;-75
2021/09/18 03:59:19;;;;;;;18.27;9.43;;;;;;;5.93;100.00;93764.41;5115711;28;20233;-76
2021/09/18 04:01:46;;;;;;;28.37;10.67;;;;;;;6.08;100.00;93766.28;5115335;28;20202;-75
2021/09/18 04:04:13;;;;;;;29.60;11.90;;;;;;;6.19;100.00;93755.50;5115147;28;20301;-76
2021/09/18 04:06:42;;;;;;;32.73;12.43;;;;;;;6.32;100.00;93761.91;5115331;28;20207;-75
2021/09/18 04:09:11;;;;;;;34.03;12.50;;;;;;;6.26;100.00;93761.63;5115582;28;20205;-75
2021/09/18 04:11:38;;;;;;;31.67;12.43;;;;;;;6.30;100.00;93765.47;5115282;28;20219;-75
2021/09/18 04:14:08;;;;;;;30.07;12.43;;;;;;;6.33;100.00;93764.31;5115493;28;20536;-76
2021/09/18 04:16:34;;;;;;;31.37;12.50;;;;;;;6.38;100.00;93762.00;5115370;28;20198;-75
2021/09/18 04:19:01;;;;;;;34.17;11.97;;;;;;;6.46;100.00;93768.88;5115125;28;20198;-75
2021/09/18 04:21:29;;;;;;;29.63;11.90;;;;;;;6.51;100.00;93766.56;5115386;28;20197;-75
2021/09/18 04:23:59;;;;;;;34.43;12.80;;;;;;;6.51;100.00;93766.56;5115331;28;20193;-76
2021/09/18 04:26:26;;;;;;;28.83;11.60;;;;;;;6.55;100.00;93761.88;5115176;28;20257;-75
2021/09/18 04:28:54;;;;;;;30.73;12.17;;;;;;;6.55;100.00;93762.66;5115198;28;20201;-76
2021/09/18 04:31:25;;;;;;;29.27;12.90;;;;;;;6.54;100.00;93760.25;5114956;28;20204;-75
2021/09/18 04:33:56;;;;;;;32.53;12.43;;;;;;;6.49;100.00;93768.53;5115042;28;20197;-75
2021/09/18 04:36:22;;;;;;;30.10;12.77;;;;;;;6.53;100.00;93767.22;5114960;28;20203;-75
2021/09/18 04:38:49;;;;;;;33.77;13.17;;;;;;;6.73;100.00;93771.88;5114942;28;20238;-76
2021/09/18 04:41:15;;;;;;;29.97;11.97;;;;;;;6.62;100.00;93768.75;5114835;28;20229;-75
2021/09/18 04:43:46;;;;;;;38.67;12.77;;;;;;;6.62;100.00;93773.13;5114697;28;20200;-76
2021/09/18 04:46:12;;;;;;;23.40;10.20;;;;;;;6.43;100.00;93771.84;5114591;28;20293;-76
2021/09/18 04:48:43;;;;;;;22.30;10.17;;;;;;;6.29;100.00;93774.25;5114859;28;20210;-76
2021/09/18 04:51:09;;;;;;;27.03;10.13;;;;;;;6.27;100.00;93770.19;5114702;28;20197;-76
2021/09/18 04:53:36;;;;;;;22.60;10.13;;;;;;;6.25;100.00;93772.94;5114773;28;20572;-76
2021/09/18 04:56:06;;;;;;;30.27;11.87;;;;;;;6.27;100.00;93776.16;5114610;28;20193;-76
2021/09/18 04:58:33;;;;;;;32.60;11.50;;;;;;;6.28;100.00;93779.59;5114489;28;20206;-76
2021/09/18 05:00:59;;;;;;;28.70;11.20;;;;;;;6.22;100.00;93783.66;5114203;28;20205;-76
2021/09/18 05:03:26;;;;;;;25.23;11.20;;;;;;;6.28;100.00;93782.97;5114118;28;20208;-75
2021/09/18 05:05:56;;;;;;;25.53;10.93;;;;;;;6.19;100.00;93780.63;5114425;28;20201;-76
2021/09/18 05:08:23;;;;;;;33.60;12.60;;;;;;;6.44;100.00;93783.81;5114272;28;20211;-75
2021/09/18 05:10:52;;;;;;;32.37;12.07;;;;;;;6.35;100.00;93784.88;5113418;28;20198;-76
2021/09/18 05:13:23;;;;;;;29.13;11.07;;;;;;;6.27;100.00;93783.16;5113022;28;20586;-76
2021/09/18 05:15:53;;;;;;;32.37;11.57;;;;;;;6.37;100.00;93788.09;5114308;28;20246;-75
2021/09/18 05:18:19;;;;;;;31.40;12.17;;;;;;;6.47;100.00;93791.25;5114370;28;20293;-76
2021/09/18 05:20:48;;;;;;;37.87;13.23;;;;;;;6.57;100.00;93791.03;5114137;28;20233;-76
2021/09/18 05:23:16;;;;;;;33.43;12.73;;;;;;;6.64;100.00;93784.97;5113939;28;20674;-76
2021/09/18 05:25:46;;;;;;;45.77;15.97;;;;;;;6.78;100.00;93787.75;5113637;28;20237;-75
2021/09/18 05:28:13;;;;;;;41.33;14.87;;;;;;;6.82;100.00;93783.81;5114227;28;20197;-75
2021/09/18 05:30:40;;;;;;;43.50;15.97;;;;;;;6.85;100.00;93788.66;5113876;28;20236;-76
2021/09/18 05:33:11;;;;;;;50.17;16.77;;;;;;;6.96;100.00;93787.41;5114050;28;20202;-75
2021/09/18 05:35:42;;;;;;;44.80;17.87;;;;;;;7.11;100.00;93790.00;5114029;28;20198;-75
2021/09/18 05:38:09;;;;;;;41.57;15.73;;;;;;;7.15;100.00;93783.50;5113759;28;20200;-75
2021/09/18 05:40:37;;;;;;;52.40;16.80;;;;;;;7.27;100.00;93786.44;5113894;28;20229;-76
2021/09/18 05:43:04;;;;;;;47.30;15.83;;;;;;;7.29;100.00;93785.25;5113996;28;20590;-75
2021/09/18 05:45:32;;;;;;;44.53;16.07;;;;;;;7.31;100.00;93793.69;5113600;28;20659;-76
2021/09/18 05:48:03;;;;;;;37.47;14.87;;;;;;;7.27;100.00;93795.03;5113839;28;20732;-76
2021/09/18 05:50:30;;;;;;;31.13;14.07;;;;;;;7.25;100.00;93794.41;5113575;28;20194;-76
2021/09/18 05:52:59;;;;;;;38.47;14.47;;;;;;;7.31;100.00;93787.69;5113821;28;20201;-76
2021/09/18 05:55:25;;;;;;;38.43;14.73;;;;;;;7.31;100.00;93791.09;5113616;28;20204;-76
2021/09/18 05:57:54;;;;;;;42.78;16.90;;;;;;;7.34;100.00;93788.13;5113360;28;20431;-76
2021/09/18 06:00:21;;;;;;;44.33;16.93;;;;;;;7.47;100.00;93790.09;5113378;28;20319;-76
2021/09/18 06:02:52;;;;;;;41.37;15.80;;;;;;;7.48;100.00;93785.72;5113493;28;20205;-75
2021/09/18 06:05:19;;;;;;;39.00;15.30;;;;;;;7.60;100.00;93789.44;5113513;28;20201;-75
2021/09/18 06:07:45;;;;;;;33.93;14.90;;;;;;;7.60;100.00;93786.84;5113349;28;20197;-76
2021/09/18 06:10:12;;;;;;;35.23;14.40;;;;;;;7.67;100.00;93792.13;5113355;28;20211;-76
2021/09/18 06:12:41;;;;;;;48.57;16.33;;;;;;;7.74;100.00;93788.63;5113475;28;20201;-76
2021/09/18 06:15:12;;;;;;;39.30;15.23;;;;;;;7.83;100.00;93778.09;5113468;28;20205;-76
2021/09/18 06:17:38;;;;;;;42.60;17.13;;;;;;;7.96;100.00;93783.47;5117251;28;20211;-77
2021/09/18 06:20:06;;;;;;;47.33;17.20;;;;;;;8.08;100.00;93789.78;5117574;28;20682;-77
2021/09/18 06:22:32;;;;;;;44.77;16.70;;;;;;;8.14;100.00;93794.25;5117421;28;20205;-75
2021/09/18 06:25:02;;;;;;;41.67;16.93;;;;;;;8.30;100.00;93795.78;5117557;28;20197;-75
2021/09/18 06:27:31;;;;;;;41.70;16.20;;;;;;;8.39;100.00;93804.28;5117387;28;20586;-75
2021/09/18 06:29:58;;;;;;;38.90;16.23;;;;;;;8.48;100.00;93795.38;5117578;28;20201;-76
2021/09/18 06:32:26;;;;;;;44.27;17.23;;;;;;;8.63;100.00;93800.53;5116986;28;20197;-76
2021/09/18 06:34:56;;;;;;;42.40;18.23;;;;;;;8.70;100.00;93801.38;5117399;28;20201;-75
2021/09/18 06:37:25;;;;;;;48.07;16.77;;;;;;;8.88;100.00;93811.31;5117320;28;20201;-76
2021/09/18 06:39:57;;;;;;;43.20;17.70;;;;;;;8.97;100.00;93804.16;5116888;28;20235;-75
2021/09/18 06:42:26;;;;;;;44.70;17.37;;;;;;;9.13;100.00;93808.31;5116915;28;20280;-75
2021/09/18 06:44:53;;;;;;;44.23;17.33;;;;;;;9.23;100.00;93807.97;5116918;28;20568;-76
2021/09/18 06:47:22;;;;;;;53.55;23.92;;;;;;;9.42;100.00;93809.84;5116533;28;20462;-75
2021/09/18 06:49:50;;;;;;;45.13;19.40;;;;;;;9.58;100.00;93811.34;5116901;27;20655;-75
2021/09/18 06:52:19;;;;;;;44.80;19.80;;;;;;;9.75;100.00;93811.03;5116879;28;20666;-75
2021/09/18 06:54:46;;;;;;;42.57;18.70;;;;;;;9.89;100.00;93807.50;5116866;28;20202;-75
2021/09/18 06:57:13;;;;;;;40.80;16.30;;;;;;;10.10;100.00;93800.53;5116786;28;20254;-76
2021/09/18 06:59:43;;;;;;;37.47;17.07;;;;;;;10.25;100.00;93806.38;5116424;28;20683;-75
2021/09/18 07:02:09;;;;;;;30.50;15.53;;;;;;;10.43;100.00;93811.06;5116826;28;20296;-75
2021/09/18 07:04:43;;;;;;;28.77;15.07;;;;;;;10.73;100.00;93811.50;5116256;28;20221;-75
2021/09/18 07:07:11;;;;;;;24.43;11.97;;;;;;;11.03;100.00;93813.69;5116812;28;20205;-76
2021/09/18 07:09:45;;;;;;;25.13;11.90;;;;;;;11.20;100.00;93808.06;5117117;28;20202;-76
2021/09/18 07:12:11;;;;;;;19.67;11.47;;;;;;;11.30;100.00;93808.44;5116605;28;20198;-76
2021/09/18 07:14:42;;;;;;;21.03;11.03;;;;;;;11.32;100.00;93811.66;5116358;28;20204;-75
2021/09/18 07:17:13;;;;;;;22.17;11.27;;;;;;;11.52;100.00;93805.56;5116389;28;20710;-76
2021/09/18 07:19:42;;;;;;;16.23;9.60;;;;;;;11.65;100.00;93811.56;5116371;28;20221;-76
2021/09/18 07:22:08;;;;;;;18.03;9.73;;;;;;;11.80;100.00;93798.22;5116323;27;20642;-76
2021/09/18 07:24:36;;;;;;;14.43;8.50;;;;;;;11.95;100.00;93799.81;5116119;28;20205;-76
2021/09/18 07:27:08;;;;;;;14.83;6.77;;;;;;;12.08;100.00;93807.63;5115569;28;20229;-76
2021/09/18 07:29:37;;;;;;;17.03;8.20;;;;;;;12.34;100.00;93808.47;5116327;28;20212;-76
2021/09/18 07:32:18;;;;;;;15.07;8.07;;;;;;;12.44;100.00;93813.25;5116241;28;20197;-75
2021/09/18 07:34:46;;;;;;;16.30;7.70;;;;;;;12.59;100.00;93813.78;5116048;27;20208;-76
2021/09/18 07:37:21;;;;;;;13.30;7.68;;;;;;;12.65;100.00;93810.31;5116204;28;20229;-76
2021/09/18 07:39:59;;;;;;;12.55;7.13;;;;;;;12.76;100.00;93816.69;5115850;28;20278;-76
2021/09/18 07:42:26;;;;;;;13.77;7.88;;;;;;;12.84;100.00;93826.91;5115960;28;20543;-76
2021/09/18 07:44:54;;;;;;;12.80;7.57;;;;;;;12.91;100.00;93829.47;5115929;28;20208;-75
2021/09/18 07:47:21;;;;;;;15.07;8.38;;;;;;;13.01;100.00;93818.53;5114321;28;20228;-76
2021/09/18 07:49:52;;;;;;;10.10;6.40;;;;;;;13.14;100.00;93828.91;5114827;28;20262;-76
2021/09/18 07:52:18;;;;;;;9.40;5.72;;;;;;;13.27;100.00;93825.34;5115861;28;20250;-76
2021/09/18 07:54:52;;;;;;;8.82;5.72;;;;;;;13.35;100.00;93826.94;5115728;28;20250;-76
2021/09/18 07:57:21;;;;;;;12.43;5.60;;;;;;;13.44;100.00;93834.31;5115685;28;20201;-76
2021/09/18 07:59:56;;;;;;;6.53;4.85;;;;;;;13.54;100.00;93825.94;5115321;28;20229;-75
2021/09/18 08:02:25;;;;;;;7.20;4.38;;;;;;;13.64;100.00;93821.00;5115744;28;20192;-76
2021/09/18 08:04:58;;;;;;;8.15;4.50;;;;;;;13.77;100.00;93822.69;5113699;28;20201;-76
2021/09/18 08:07:35;;;;;;;7.15;4.13;;;;;;;13.77;100.00;93827.09;5113865;28;20677;-76
2021/09/18 08:10:10;;;;;;;7.13;4.05;;;;;;;13.84;100.00;93827.84;5113927;28;20234;-76
2021/09/18 08:12:36;;;;;;;5.05;3.60;;;;;;;13.91;100.00;93833.81;5114186;28;20643;-76
2021/09/18 08:15:04;;;;;;;13.02;3.42;;;;;;;13.99;100.00;93823.03;5114264;28;20200;-77
2021/09/18 08:17:32;;;;;;;6.18;3.50;;;;;;;14.11;100.00;93825.72;5114297;28;20198;-76
2021/09/18 08:19:59;;;;;;;10.10;3.70;;;;;;;14.21;100.00;93833.06;5114678;28;20221;-76
2021/09/18 08:22:28;;;;;;;4.13;2.90;;;;;;;14.17;100.00;93829.25;5114977;28;20709;-76
2021/09/18 08:24:59;;;;;;;7.57;2.72;;;;;;;14.21;100.00;93833.06;5114991;28;20205;-75
2021/09/18 08:27:28;;;;;;;4.65;2.60;;;;;;;14.23;100.00;93815.25;5114766;28;20233;-76
2021/09/18 08:29:56;;;;;;;5.32;2.80;;;;;;;14.30;100.00;93826.47;5115144;28;20533;-76
2021/09/18 08:32:25;;;;;;;4.88;3.03;;;;;;;14.41;100.00;93832.81;5115053;28;20202;-76
2021/09/18 08:34:54;;;;;;;5.88;3.00;;;;;;;14.48;100.00;93827.47;5114950;28;20205;-76
2021/09/18 08:37:31;;;;;;;5.18;2.75;;;;;;;14.48;100.00;93828.25;5114731;28;20201;-76
2021/09/18 08:40:06;;;;;;;4.93;2.65;;;;;;;14.60;100.00;93830.94;5114100;28;20233;-76
2021/09/18 08:42:36;;;;;;;2.75;2.03;;;;;;;14.68;100.00;93830.63;5114820;28;20197;-75
2021/09/18 08:45:06;;;;;;;3.78;2.05;;;;;;;14.74;100.00;93837.63;5114900;28;20213;-76
2021/09/18 08:47:36;;;;;;;5.38;2.20;;;;;;;14.67;100.00;93830.84;5115018;28;20652;-76
2021/09/18 08:50:05;;;;;;;5.75;2.63;;;;;;;14.76;100.00;93829.53;5114446;28;20205;-76
2021/09/18 08:52:36;;;;;;;5.78;2.28;;;;;;;14.85;100.00;93837.88;5114059;28;20194;-76
2021/09/18 08:55:04;;;;;;;4.72;2.47;;;;;;;14.91;100.00;93837.00;5114500;28;20201;-75
2021/09/18 08:57:32;;;;;;;5.00;2.55;;;;;;;14.96;97.98;93843.16;5114311;28;20729;-75
2021/09/18 09:00:00;;;;;;;3.65;2.17;;;;;;;14.89;99.80;93837.22;5113476;28;20225;-75
2021/09/18 09:02:30;;;;;;;3.65;2.33;;;;;;;15.06;100.00;93839.19;5113683;28;20197;-75
2021/09/18 09:05:06;;;;;;;2.72;2.00;;;;;;;15.11;96.07;93839.31;5113698;28;20209;-76
2021/09/18 09:07:35;;;;;;;2.97;1.80;;;;;;;15.17;94.38;93833.94;5113630;28;20193;-75
2021/09/18 09:10:06;;;;;;;3.55;2.35;;;;;;;15.20;92.86;93835.31;5114001;28;20205;-75
2021/09/18 09:12:34;;;;;;;7.43;2.10;;;;;;;15.17;90.79;93835.75;5113634;28;20655;-77
2021/09/18 09:15:05;;;;;;;4.45;2.35;;;;;;;15.10;90.16;93837.69;5110388;28;20197;-75
2021/09/18 09:17:33;;;;;;;2.50;1.98;;;;;;;15.26;92.92;93830.97;5114151;28;20205;-75
2021/09/18 09:20:01;;;;;;;7.05;1.98;;;;;;;15.43;87.73;93836.34;5113533;28;20233;-74
2021/09/18 09:22:44;;;;;;;2.13;1.70;;;;;;;15.56;96.10;93835.34;5113554;28;20228;-75
2021/09/18 09:25:26;;;;;;;2.08;1.73;;;;;;;15.45;86.85;93836.91;5113235;28;20201;-75
2021/09/18 09:27:53;;;;;;;1.90;1.70;;;;;;;15.41;87.48;93836.59;5114106;28;20267;-76
2021/09/18 09:30:36;;;;;;;2.10;1.70;;;;;;;15.58;91.60;93844.59;5113624;28;20609;-75
2021/09/18 09:33:07;;;;;;;13.60;2.08;;;;;;;15.67;85.12;93832.69;5111185;28;20204;-75
2021/09/18 09:35:34;;;;;;;1.55;1.45;;;;;;;15.78;84.80;93836.38;5113384;28;20721;-75
2021/09/18 09:38:01;;;;;;;3.10;1.65;;;;;;;15.71;76.98;93833.81;5113452;28;20201;-75
2021/09/18 09:40:37;;;;;;;2.22;1.70;;;;;;;15.79;84.52;93835.34;5113742;28;20225;-75
2021/09/18 09:43:05;;;;;;;2.33;1.63;;;;;;;15.81;81.77;93830.63;5113006;28;20205;-76
2021/09/18 09:45:32;;;;;;;7.13;1.50;;;;;;;15.82;78.46;93826.16;5112725;28;20605;-75
2021/09/18 09:48:06;;;;;;;2.42;1.38;;;;;;;15.78;82.13;93820.56;5113583;28;20201;-76
2021/09/18 09:50:33;;;;;;;3.72;1.73;;;;;;;15.87;80.27;93827.09;5113787;28;20208;-75
2021/09/18 09:53:01;;;;;;;2.95;1.55;;;;;;;16.06;79.31;93819.03;5112348;28;20197;-75
2021/09/18 09:55:28;;;;;;;2.88;1.52;;;;;;;16.00;80.29;93817.31;5113035;28;20601;-75
2021/09/18 09:57:59;;;;;;;2.20;1.70;;;;;;;16.02;83.47;93820.50;5113253;28;20208;-75
2021/09/18 10:00:36;;;;;;;2.78;1.80;;;;;;;16.03;82.70;93827.41;5113384;28;20228;-75
2021/09/18 10:03:04;;;;;;;3.08;1.77;;;;;;;16.14;83.62;93818.66;5111921;28;20684;-75
2021/09/18 10:05:31;;;;;;;2.45;1.83;;;;;;;16.21;81.18;93813.25;5113401;28;20212;-75
2021/09/18 10:07:59;;;;;;;8.15;2.13;;;;;;;16.45;86.81;93813.97;5113126;28;20197;-75
2021/09/18 10:10:26;;;;;;;3.35;1.98;;;;;;;16.58;83.37;93803.13;5113077;28;20201;-75
2021/09/18 10:12:55;;;;;;;3.75;2.00;;;;;;;16.64;83.19;93817.22;5113345;28;20197;-74
2021/09/18 10:15:26;;;;;;;2.20;1.65;;;;;;;16.68;82.71;93814.91;5112925;28;20201;-76
2021/09/18 10:17:54;;;;;;;2.85;2.00;;;;;;;16.57;78.33;93814.72;5113404;28;20242;-75
2021/09/18 10:23:17;;;;;;;2.25;1.70;;;;;;;16.68;76.83;93812.28;5113323;28;20326;-76
2021/09/18 10:25:47;;;;;;;4.82;2.00;;;;;;;16.39;80.49;93814.94;5111929;28;20869;-75
2021/09/18 10:28:16;;;;;;;2.78;1.80;;;;;;;16.70;83.32;93807.56;5113373;28;20201;-75
2021/09/18 10:30:44;;;;;;;2.95;1.65;;;;;;;17.06;84.78;93808.19;5112829;28;20224;-75
2021/09/18 10:33:27;;;;;;;5.57;1.60;;;;;;;17.08;80.84;93806.88;5113115;28;20288;-76
2021/09/18 10:35:57;;;;;;;4.40;1.60;;;;;;;17.49;82.37;93807.50;5112300;28;20430;-76
2021/09/18 10:38:26;;;;;;;2.03;1.70;;;;;;;17.51;78.53;93809.91;5113525;28;20201;-74
2021/09/18 10:40:57;;;;;;;2.60;1.20;;;;;;;17.82;76.73;93805.84;5113188;28;20228;-75
2021/09/18 10:43:25;;;;;;;2.85;1.90;;;;;;;17.78;76.16;93803.94;5112833;28;20202;-75
2021/09/18 10:45:52;;;;;;;9.45;1.70;;;;;;;18.23;80.54;93795.78;5109235;28;20202;-75
2021/09/18 10:48:35;;;;;;;2.72;1.60;;;;;;;18.36;71.61;93802.53;5112932;28;20219;-75
2021/09/18 10:51:04;;;;;;;1.95;1.60;;;;;;;18.28;72.79;93795.06;5113111;28;20202;-76
2021/09/18 10:53:30;;;;;;;2.50;1.60;;;;;;;18.21;70.80;93794.44;5113073;28;20556;-75
2021/09/18 10:55:58;;;;;;;1.90;1.40;;;;;;;18.23;70.46;93797.63;5112871;28;20644;-75
2021/09/18 10:58:26;;;;;;;2.35;1.50;;;;;;;18.59;73.96;93803.31;5112906;28;20202;-75
2021/09/18 11:00:55;;;;;;;2.70;1.40;;;;;;;18.56;70.10;93795.88;5112802;28;20226;-75
2021/09/18 11:03:43;;;;;;;1.50;1.30;;;;;;;19.09;67.90;93801.41;5115869;28;20270;-77
2021/09/18 11:06:39;;;;;;;1.55;1.40;;;;;;;19.05;71.88;93801.09;5116899;28;20194;-75
2021/09/18 11:09:07;;;;;;;3.47;1.30;;;;;;;18.96;69.19;93802.63;5115367;28;20202;-75
2021/09/18 11:11:34;;;;;;;2.53;1.38;;;;;;;19.39;66.92;93803.50;5116037;28;20201;-75
2021/09/18 11:14:01;;;;;;;2.50;1.67;;;;;;;19.55;66.93;93796.41;5116572;28;20201;-75
2021/09/18 11:16:32;;;;;;;1.90;1.20;;;;;;;19.66;63.30;93787.50;5116748;28;20197;-76
2021/09/18 11:19:02;;;;;;;3.00;1.40;;;;;;;19.37;70.32;93792.34;5116551;28;20204;-75
2021/09/18 11:21:31;;;;;;;1.80;1.20;;;;;;;19.56;67.51;93785.56;5116409;28;20225;-75
2021/09/18 11:24:01;;;;;;;1.55;1.15;;;;;;;19.45;66.19;93786.59;5116203;28;20197;-75
2021/09/18 11:26:42;;;;;;;2.08;1.50;;;;;;;19.52;63.70;93784.50;5116326;28;20245;-75
2021/09/18 11:29:24;;;;;;;1.25;1.00;;;;;;;19.66;64.31;93789.34;5116284;28;20208;-75
2021/09/18 11:32:04;;;;;;;1.75;1.25;;;;;;;19.35;69.40;93789.16;5115115;28;20197;-75
2021/09/18 11:34:33;;;;;;;1.90;1.42;;;;;;;19.56;63.25;93788.22;5115690;28;20201;-76
2021/09/18 11:37:01;;;;;;;1.58;1.20;;;;;;;19.54;63.53;93777.09;5116315;28;20205;-76